Latest Weather Observations for Warburton

IDD60801

Issued at 7:35 am CST Wednesday 24 September 2014 (issued every 30 minutes, with the page automatically refreshed every 10 minutes)

About weather observations | Map of weather stations | Latest weather observations for NT | Other Formats
Station Details ID: 013011 Name: WARBURTON AIRFIELD Lat: -26.13 Lon: 126.58 Height: 459.0 m
Data from the previous 72 hours. | See also: Recent months at Warburton
Date/Time
CST
Temp
°C
App
Temp
°C
Dew
Point
Rel
Hum
%
Delta-T
°C
Wind Press
QNH
hPa
Press
MSL
hPa
Rain
since 9 am
mm
Dir
 
Spd
km/h
Gust
km/h
Spd
kts
Gust
kts
24/07:30am 10.7 6.0 5.0 68 2.6 SSE 19 24 10 13 1023.6 1022.1 0.0
24/07:00am 9.9 5.9 5.1 72 2.2 SSE 15 22 8 12 1023.2 - 0.0
24/06:30am 9.9 5.6 5.3 73 2.1 SSE 17 20 9 11 1022.9 - 0.0
24/06:00am 9.9 5.6 5.3 73 2.1 SSE 17 20 9 11 1022.8 - 0.0
24/05:30am 9.7 5.8 5.3 74 2.0 SSE 15 20 8 11 1022.6 - 0.0
24/05:00am 8.9 5.6 4.5 74 2.0 S 11 13 6 7 1022.6 - 0.0
24/04:30am 9.0 6.1 4.4 73 2.1 S 9 11 5 6 1022.6 1021.1 0.0
24/04:00am 9.5 6.6 4.5 71 2.3 S 9 11 5 6 1022.7 - 0.0
24/03:30am 9.8 6.9 4.4 69 2.5 S 9 11 5 6 1022.8 - 0.0
24/03:00am 10.3 7.4 4.5 67 2.7 S 9 11 5 6 1022.8 - 0.0
24/02:30am 11.1 8.2 4.8 65 2.9 S 9 13 5 7 1023.0 - 0.0
24/02:00am 11.8 8.2 5.0 63 3.2 S 13 19 7 10 1023.1 - 0.0
24/01:30am 12.1 8.1 4.8 61 3.4 S 15 20 8 11 1023.4 1021.9 0.0
24/01:00am 12.4 8.8 4.9 60 3.5 S 13 17 7 9 1023.5 - 0.0
24/12:30am 12.9 9.3 4.8 58 3.8 S 13 20 7 11 1023.8 - 0.0
24/12:00am 13.3 9.3 4.7 56 4.1 S 15 20 8 11 1023.6 - 0.0
 
Date/Time
CST
Temp
°C
App
Temp
°C
Dew
Point
Rel
Hum
%
Delta-T
°C
Wind Press
QNH
hPa
Press
MSL
hPa
Rain
since 9 am
mm
Dir
 
Spd
km/h
Gust
km/h
Spd
kts
Gust
kts
23/11:30pm 13.4 8.8 3.8 52 4.4 SSE 17 24 9 13 1023.5 - 0.0
23/11:00pm 14.0 9.7 3.2 48 5.0 S 15 20 8 11 1023.5 - 0.0
23/10:30pm 14.4 10.2 1.7 42 5.7 S 13 15 7 8 1023.3 1021.8 0.0
23/10:00pm 14.1 10.5 0.4 39 5.9 S 9 11 5 6 1022.9 - 0.0
23/09:30pm 14.3 10.6 -0.2 37 6.2 S 9 13 5 7 1022.6 - 0.0
23/09:00pm 14.8 11.1 -0.1 36 6.4 S 9 11 5 6 1022.3 - 0.0
23/08:30pm 15.6 11.4 -0.6 33 7.0 S 11 17 6 9 1021.9 - 0.0
23/08:00pm 16.2 11.2 -0.9 31 7.4 S 15 19 8 10 1021.5 - 0.0
23/07:30pm 16.7 11.3 -1.4 29 7.7 S 17 26 9 14 1020.8 1019.3 0.0
23/07:00pm 17.3 10.8 -2.4 26 8.3 S 22 37 12 20 1020.4 - 0.0
23/06:30pm 18.1 11.6 -2.2 25 8.6 SSW 22 33 12 18 1019.9 - 0.0
23/06:00pm 18.6 12.1 -2.3 24 8.9 SSW 22 35 12 19 1019.4 - 0.0
23/05:30pm 19.0 12.9 -2.6 23 9.2 S 20 39 11 21 1019.0 - 0.0
23/05:00pm 19.0 12.5 -2.6 23 9.2 SSW 22 32 12 17 1018.7 - 0.0
23/04:30pm 18.8 11.9 -2.7 23 9.1 SW 24 35 13 19 1018.5 1017.0 0.0
23/04:00pm 18.7 12.6 -2.3 24 9.0 SSW 20 39 11 21 1018.7 - 0.0
23/03:30pm 19.5 12.6 -2.8 22 9.5 SW 24 33 13 18 1019.0 - 0.0
23/03:00pm 18.6 12.8 -1.3 26 8.7 SSW 19 35 10 19 1019.2 - 0.0
23/02:30pm 17.9 10.4 -1.3 27 8.3 SSE 28 37 15 20 1019.3 - 0.0
23/02:00pm 18.0 9.8 -0.8 28 8.2 SSW 32 43 17 23 1019.7 - 0.0
23/01:30pm 17.5 10.9 -0.2 30 7.8 SSW 24 41 13 22 1019.6 1018.0 0.0
23/01:00pm 17.2 9.5 -0.1 31 7.6 SSW 30 56 16 30 1019.6 - 0.0
23/12:55pm 17.5 10.3 0.6 32 7.6 SW 28 56 15 30 1019.6 - 0.0
23/12:30pm 16.4 9.6 0.9 35 6.9 SSW 26 39 14 21 1019.8 - 0.0
23/12:00pm 16.1 8.5 0.7 35 6.8 S 30 39 16 21 1020.0 - 0.0
23/11:30am 15.7 9.3 0.7 36 6.6 SW 24 35 13 19 1020.2 - 0.0
23/11:00am 14.9 7.7 0.4 37 6.3 SSW 28 37 15 20 1020.3 - 0.0
23/10:30am 14.3 7.8 0.5 39 6.0 SSW 24 35 13 19 1020.4 1018.8 0.0
23/10:00am 13.5 7.1 1.2 43 5.4 SSW 24 35 13 19 1020.3 - 0.0
23/09:30am 12.9 6.3 2.2 48 4.8 SSW 26 37 14 20 1020.3 - 0.0
23/09:00am 12.3 6.2 2.7 52 4.3 SSW 24 33 13 18 1020.3 - 0.0
23/08:30am 11.6 5.1 2.9 55 3.9 S 26 39 14 21 1020.3 - 0.0
23/08:00am 11.3 4.8 4.7 64 3.1 SSW 28 41 15 22 1019.8 - 0.0
23/07:30am 11.1 5.1 5.2 67 2.8 SSW 26 39 14 21 1019.3 1017.7 0.0
23/07:00am 10.8 5.6 5.6 70 2.5 S 22 32 12 17 1019.2 - 0.0
23/06:30am 11.3 5.8 5.8 69 2.6 SSW 24 33 13 18 1019.0 - 0.0
23/06:00am 11.4 5.6 6.3 71 2.5 SW 26 39 14 21 1018.9 - 0.0
23/05:30am 11.4 5.7 6.7 73 2.3 SW 26 35 14 19 1018.5 - 0.0
23/05:00am 11.7 6.5 7.2 74 2.2 WSW 24 43 13 23 1018.1 - 0.0
23/04:30am 12.3 7.0 7.0 70 2.6 SW 24 37 13 20 1017.9 1016.3 0.0
23/04:00am 12.6 7.3 6.6 67 2.9 SW 24 32 13 17 1017.8 - 0.0
23/03:30am 12.7 7.0 6.5 66 3.0 SW 26 39 14 21 1018.2 - 0.0
23/03:00am 13.1 9.0 6.0 62 3.4 WSW 17 26 9 14 1017.8 - 0.0
23/02:30am 13.1 8.9 5.8 61 3.5 SW 17 24 9 13 1017.9 - 0.0
23/02:00am 13.5 7.5 5.4 58 3.9 SW 26 39 14 21 1017.8 - 0.0
23/01:30am 14.3 9.8 4.0 50 4.8 SW 17 22 9 12 1017.7 1016.1 0.0
23/01:00am 14.9 9.3 3.4 46 5.4 SW 22 33 12 18 1017.8 - 0.0
23/12:30am 15.7 8.8 2.8 42 6.0 SW 28 39 15 21 1017.6 - 0.0
23/12:00am 16.3 10.9 2.7 40 6.3 SW 20 32 11 17 1017.2 - 0.0
 
Date/Time
CST
Temp
°C
App
Temp
°C
Dew
Point
Rel
Hum
%
Delta-T
°C
Wind Press
QNH
hPa
Press
MSL
hPa
Rain
since 9 am
mm
Dir
 
Spd
km/h
Gust
km/h
Spd
kts
Gust
kts
22/11:30pm 16.7 10.1 2.3 38 6.7 WSW 26 39 14 21 1016.9 - 0.0
22/11:00pm 17.2 11.3 2.0 36 7.0 WSW 22 30 12 16 1016.4 - 0.0
22/10:30pm 17.8 10.8 2.2 35 7.2 SW 28 41 15 22 1016.1 1014.5 0.0
22/10:08pm 18.4 11.5 2.7 35 7.4 SW 28 46 15 25 1015.8 - 0.0
22/10:00pm 18.5 10.3 2.8 35 7.4 SW 35 48 19 26 1015.7 - 0.0
22/09:30pm 19.6 10.7 2.9 33 8.0 SW 39 57 21 31 1015.2 - 0.0
22/09:07pm 20.3 12.6 2.2 30 8.6 SW 32 52 17 28 1014.7 - 0.0
22/09:00pm 20.7 12.8 2.0 29 8.9 SW 33 44 18 24 1014.2 - 0.0
22/08:30pm 21.8 13.9 0.9 25 9.8 WSW 32 41 17 22 1013.7 - 0.0
22/08:16pm 22.0 13.9 1.1 25 9.8 SW 33 52 18 28 1013.5 - 0.0
22/08:00pm 22.1 15.5 2.2 27 9.6 SW 26 41 14 22 1013.1 - 0.0
22/07:30pm 22.8 14.8 3.9 29 9.4 SW 35 54 19 29 1012.4 1010.7 0.0
22/07:24pm 23.1 16.7 5.1 31 9.2 WSW 28 54 15 29 1012.1 - 0.0
22/07:00pm 23.3 15.9 6.6 34 8.8 WSW 35 52 19 28 1011.2 - 0.0
22/06:33pm 25.3 18.0 7.4 32 9.7 WSW 35 56 19 30 1010.2 - 0.0
22/06:30pm 25.4 18.2 7.5 32 9.7 WSW 35 48 19 26 1010.1 - 0.0
22/06:10pm 26.8 20.0 9.2 33 9.9 WSW 35 57 19 31 1009.7 - 0.0
22/06:00pm 27.6 21.2 9.4 32 10.3 WSW 33 46 18 25 1009.3 - 0.0
22/05:55pm 28.2 21.1 9.5 31 10.6 WSW 37 48 20 26 1008.8 - 0.0
22/05:49pm 29.4 23.4 8.5 27 11.7 W 30 48 16 26 1008.9 - 0.0
22/05:32pm 30.2 21.9 6.1 22 13.1 WNW 39 48 21 26 1008.5 - 0.0
22/05:30pm 31.0 23.4 3.1 17 14.4 NNW 32 44 17 24 1008.4 - 0.0
22/05:00pm 31.3 22.6 -0.4 13 15.5 NNW 35 50 19 27 1008.5 - 0.0
22/04:30pm 32.1 23.3 -0.9 12 16.1 NNW 35 48 19 26 1008.7 1007.0 0.0
22/04:06pm 32.3 22.6 -1.9 11 16.4 NNW 39 61 21 33 1008.7 - 0.0
22/04:00pm 33.0 23.6 -2.6 10 17.0 NNW 37 52 20 28 1008.7 - 0.0
22/03:30pm 31.8 21.2 -3.5 10 16.4 N 43 61 23 33 1009.4 - 0.0
22/03:16pm 32.3 22.5 -3.2 10 16.7 N 39 57 21 31 1009.8 - 0.0
22/03:00pm 31.8 21.2 -3.5 10 16.4 N 43 57 23 31 1010.0 - 0.0
22/02:31pm 31.9 21.1 -3.5 10 16.5 N 44 63 24 34 1010.5 - 0.0
22/02:30pm 31.6 20.8 -3.7 10 16.4 N 44 59 24 32 1010.5 - 0.0
22/02:09pm 32.1 21.4 -4.7 9 16.8 NNW 43 61 23 33 1011.0 - 0.0
22/02:00pm 31.8 20.6 -3.5 10 16.4 NNW 46 61 25 33 1011.1 - 0.0
22/01:36pm 31.0 20.7 -4.1 10 16.1 N 41 61 22 33 1011.7 - 0.0
22/01:30pm 30.5 20.5 -4.5 10 15.9 NNW 39 56 21 30 1011.9 1010.3 0.0
22/01:09pm 30.5 19.6 -5.9 9 16.1 N 43 61 23 33 1012.5 - 0.0
22/01:00pm 30.1 19.6 -6.2 9 15.9 N 41 54 22 29 1012.8 - 0.0
22/12:30pm 29.2 18.4 -5.5 10 15.3 N 43 61 23 33 1013.4 - 0.0
22/12:21pm 29.2 18.4 -5.5 10 15.3 N 43 61 23 33 1013.7 - 0.0
22/12:00pm 28.6 18.0 -7.3 9 15.3 N 41 56 22 30 1014.2 - 0.0
22/11:30am 27.5 17.3 -6.8 10 14.6 N 39 54 21 29 1015.0 - 0.0
22/11:00am 26.7 15.7 -7.4 10 14.2 N 43 54 23 29 1015.2 - 0.0
22/10:30am 26.4 15.8 -7.6 10 14.1 N 41 56 22 30 1015.4 1013.8 0.0
22/10:00am 25.5 14.9 -7.1 11 13.5 N 41 59 22 32 1015.1 - 0.0
22/09:30am 24.2 14.0 -7.0 12 12.8 N 39 59 21 32 1014.8 - 0.0
22/09:00am 23.5 14.9 -7.5 12 12.5 N 30 48 16 26 1014.8 - 0.0
22/08:32am 22.3 13.2 -7.4 13 11.9 NNE 33 52 18 28 1013.7 - 0.0
22/08:30am 22.1 12.6 -7.6 13 11.8 NNE 35 52 19 28 1013.7 - 0.0
22/08:00am 20.9 11.0 -7.6 14 11.2 NNE 37 50 20 27 1013.8 - 0.0
22/07:30am 20.3 10.5 -7.1 15 10.8 NE 37 57 20 31 1013.8 1012.2 0.0
22/07:28am 20.3 10.8 -7.1 15 10.8 NE 35 57 19 31 1013.7 - 0.0
22/07:00am 19.9 11.0 -7.5 15 10.7 NE 32 44 17 24 1013.9 - 0.0
22/06:30am 20.0 11.9 -6.6 16 10.6 NNE 28 41 15 22 1014.0 - 0.0
22/06:00am 20.2 11.8 -5.6 17 10.5 NE 30 44 16 24 1014.0 - 0.0
22/05:30am 20.4 11.7 -4.7 18 10.4 NE 32 43 17 23 1013.8 - 0.0
22/05:00am 20.7 12.1 -4.4 18 10.5 NE 32 48 17 26 1013.8 - 0.0
22/04:30am 21.2 12.4 -4.0 18 10.7 NE 33 46 18 25 1013.8 1012.2 0.0
22/04:10am 21.5 12.8 -3.8 18 10.8 NNE 33 52 18 28 1014.0 - 0.0
22/04:00am 21.6 13.1 -3.0 19 10.6 NNE 32 46 17 25 1014.0 - 0.0
22/03:30am 21.8 13.4 -2.8 19 10.7 NNE 32 46 17 25 1014.3 - 0.0
22/03:00am 22.1 14.1 -2.6 19 10.8 NNE 30 41 16 22 1014.8 - 0.0
22/02:30am 22.4 14.0 -2.3 19 10.9 NNE 32 46 17 25 1015.1 - 0.0
22/02:00am 22.7 15.1 -2.1 19 11.0 NNE 28 41 15 22 1015.4 - 0.0
22/01:30am 22.8 15.2 -2.0 19 11.0 NE 28 39 15 21 1015.6 1014.0 0.0
22/01:00am 23.3 15.8 -1.6 19 11.2 NE 28 44 15 24 1015.9 - 0.0
22/12:30am 24.0 17.3 -1.0 19 11.5 NE 24 35 13 19 1016.0 - 0.0
22/12:00am 24.6 17.9 -1.3 18 11.9 NE 24 35 13 19 1016.1 - 0.0
 
Date/Time
CST
Temp
°C
App
Temp
°C
Dew
Point
Rel
Hum
%
Delta-T
°C
Wind Press
QNH
hPa
Press
MSL
hPa
Rain
since 9 am
mm
Dir
 
Spd
km/h
Gust
km/h
Spd
kts
Gust
kts
21/11:30pm 25.5 18.0 -1.3 17 12.4 NE 28 37 15 20 1016.2 - 0.0
21/11:00pm 26.0 19.7 -0.9 17 12.6 NE 22 35 12 19 1016.5 - 0.0
21/10:30pm 26.6 20.6 -1.3 16 13.0 NE 20 26 11 14 1016.7 1015.2 0.0
21/10:00pm 27.1 21.2 -0.9 16 13.2 NNE 20 26 11 14 1016.7 - 0.0
21/09:30pm 27.5 21.8 -0.5 16 13.3 NNE 19 28 10 15 1016.7 - 0.0
21/09:00pm 27.9 22.5 -1.1 15 13.7 NNE 17 24 9 13 1016.5 - 0.0
21/08:30pm 28.1 23.1 -0.9 15 13.7 NNE 15 20 8 11 1016.2 - 0.0
21/08:00pm 28.7 24.2 -0.5 15 14.0 NNE 13 17 7 9 1016.0 - 0.0
21/07:30pm 29.0 24.8 -1.2 14 14.3 NNE 11 13 6 7 1015.7 1014.1 0.0
21/07:00pm 30.9 25.8 -1.8 12 15.6 N 15 20 8 11 1015.4 - 0.0
21/06:30pm 31.9 26.8 -2.2 11 16.2 NNE 15 22 8 12 1015.2 - 0.0
21/06:00pm 32.6 27.5 -1.7 11 16.6 NNE 15 24 8 13 1015.1 - 0.0
21/05:30pm 33.2 27.3 -2.5 10 17.1 N 19 24 10 13 1015.2 - 0.0
21/05:00pm 33.5 29.1 -2.3 10 17.2 N 11 22 6 12 1015.4 - 0.0
21/04:30pm 33.5 28.4 -2.3 10 17.2 NNE 15 26 8 14 1015.6 1014.0 0.0
21/04:00pm 33.8 29.8 -2.0 10 17.3 NE 9 20 5 11 1015.7 - 0.0
21/03:30pm 33.1 27.5 -2.6 10 17.0 NNE 17 28 9 15 1016.1 - 0.0
21/03:00pm 33.4 28.6 -2.3 10 17.2 ENE 13 20 7 11 1016.5 - 0.0
21/02:30pm 33.1 27.5 -2.6 10 17.0 ENE 17 26 9 14 1017.2 - 0.0
21/02:00pm 32.8 26.8 -2.8 10 16.9 ENE 19 28 10 15 1017.8 - 0.0
21/01:30pm 32.6 26.2 -1.7 11 16.5 NE 22 33 12 18 1018.4 1016.8 0.0
21/01:00pm 31.0 24.1 -2.9 11 15.9 NE 24 35 13 19 1018.9 - 0.0
21/12:30pm 31.1 24.3 -1.6 12 15.6 NE 24 35 13 19 1019.5 - 0.0
21/12:00pm 30.0 22.9 -1.4 13 15.0 NE 26 35 14 19 1020.1 - 0.0
21/11:30am 29.4 22.7 -0.9 14 14.5 NE 24 33 13 18 1020.6 - 0.0
21/11:00am 28.0 21.9 0.7 17 13.3 NE 22 32 12 17 1020.9 - 0.0
21/10:30am 26.2 19.4 0.8 19 12.2 NE 26 35 14 19 1021.1 1019.6 0.0
21/10:00am 25.3 18.1 0.7 20 11.8 NE 28 41 15 22 1021.5 - 0.0
21/09:30am 23.6 16.5 1.3 23 10.6 NE 28 41 15 22 1021.5 - 0.0

Other Formats:

Comma delimited format used in spreadsheet applications
http://www.bom.gov.au/fwo/IDD60801/IDD60801.94457.axf

JavaScript Object Notation format (JSON) in row-major order
http://www.bom.gov.au/fwo/IDD60801/IDD60801.94457.json